»·PEaware :: UAL1235 MBPV-KEWR

UAL1235 :: MBPV-KEWR

FLIGHT INFORMATION

Flight Status: Arrived
Operator:
United Airlines
More flights by this operator :: More flights under this callsign
Pilot: Michael M. (32739)
Aircraft: BOEING 737-800
(B738)
More flights by this aircraft type
Origin: MBPV Providenciales Intl
Turks and Caicos Islands
Destination: KEWR Newark Intl
United States
More flights between these airports :: More routes between these airports
Route: WESNA, ZOVIT, GTK, CERDA, LAMER, AZEZU, SIE, PATARN, TEB, GIMME, BUZZED, RW22L
File this flight plan on PilotEdge
Remarks:
Altitude:
(Current/Filed)
37,000ft
Speed:
(Current/Filed)
287kts
Departed: 08-Dec-20 07:43 AM
Arrived: 08-Dec-20 08:49 AM
Distance/Time
Traveled:
1139nm/1:06
Distance/Time
To Go:
Arrived

Flight Plot

Page will automatically refresh every two minutes.

Flight plan parsing failed; only flown route is shown


Map Options




Map Legend


Flown Route
Filed Route
Departure Airport
Arrival Airport
Navaid (VOR, NDB)
Fix

Horizontal Profiles

Position Reports

Time Latitude Longitude Heading Altitude Ground
Speed
08-Dec-20 07:33 21.775073 -72.272176 272 38ft 0kts
08-Dec-20 07:34 21.775073 -72.272178 272 38ft 0kts
08-Dec-20 07:35 21.774119 -72.274902 239 39ft 10kts
08-Dec-20 07:36 21.774480 -72.281032 279 49ft 24kts
08-Dec-20 07:38 21.774335 -72.281361 91 49ft 0kts
08-Dec-20 07:39 21.774335 -72.281361 91 49ft 0kts
08-Dec-20 07:40 21.774335 -72.281361 91 49ft 0kts
08-Dec-20 07:41 21.774335 -72.281361 91 49ft 0kts
08-Dec-20 07:42 21.774326 -72.281157 92 49ft 14kts
08-Dec-20 07:43 21.772035 -72.237053 94 934ft 223kts
08-Dec-20 07:44 21.761682 -72.166211 112 3695ft 276kts
08-Dec-20 07:45 21.734759 -72.085894 110 6987ft 295kts
08-Dec-20 07:46 21.707753 -72.000006 110 10008ft 310kts
08-Dec-20 07:47 21.676847 -71.901234 109 11036ft 383kts
08-Dec-20 07:48 21.642834 -71.789814 109 13361ft 398kts
08-Dec-20 07:49 21.607420 -71.675080 109 15449ft 412kts
08-Dec-20 07:50 21.570965 -71.556645 109 17316ft 424kts
08-Dec-20 07:51 21.533487 -71.434270 109 19006ft 435kts
08-Dec-20 07:52 21.495291 -71.309494 109 20513ft 446kts
08-Dec-20 07:53 21.467337 -71.178981 84 21866ft 456kts
08-Dec-20 07:53 21.507144 -71.075688 44 22854ft 457kts
08-Dec-20 07:55 21.618629 -70.969304 37 24139ft 464kts
08-Dec-20 07:56 21.716784 -70.877345 37 25146ft 473kts
08-Dec-20 07:56 21.800035 -70.799247 37 25903ft 480kts
08-Dec-20 07:58 21.918520 -70.687964 37 26937ft 488kts
08-Dec-20 07:58 22.003885 -70.607653 37 27617ft 493kts
08-Dec-20 07:59 22.107808 -70.509711 37 28379ft 499kts
08-Dec-20 08:00 22.735796 -69.926164 16 31558ft 485kts
08-Dec-20 08:01 22.864588 -69.910834 350 33004ft 460kts
08-Dec-20 08:02 22.991498 -69.919038 349 34348ft 454kts
08-Dec-20 08:03 23.116997 -69.927214 349 35534ft 450kts
08-Dec-20 08:04 23.241888 -69.935350 349 36530ft 448kts
08-Dec-20 08:05 23.366946 -69.943541 349 36995ft 457kts
08-Dec-20 08:06 23.901573 -69.978549 349 36973ft 463kts
08-Dec-20 08:07 25.126574 -70.066062 339 36996ft 446kts
08-Dec-20 08:08 25.622788 -70.156010 344 36993ft 455kts
08-Dec-20 08:09 26.404207 -70.277841 341 37051ft 449kts
08-Dec-20 08:10 28.500351 -70.624007 339 37059ft 463kts
08-Dec-20 08:11 30.660049 -70.995044 336 36978ft 466kts
08-Dec-20 08:12 32.779247 -71.377675 337 37009ft 469kts
08-Dec-20 08:13 34.858795 -71.769789 338 37006ft 453kts
08-Dec-20 08:14 36.833851 -72.162446 341 36929ft 456kts
08-Dec-20 08:15 37.742575 -72.357157 348 36873ft 466kts
08-Dec-20 08:16 37.860482 -72.408084 319 36882ft 444kts
08-Dec-20 08:17 37.945563 -72.515868 299 36881ft 430kts
08-Dec-20 08:18 38.011464 -72.642221 298 36880ft 429kts
08-Dec-20 08:19 38.076946 -72.768681 298 36881ft 429kts
08-Dec-20 08:20 38.142459 -72.895419 298 36880ft 429kts
08-Dec-20 08:21 38.207731 -73.022056 298 36882ft 425kts
08-Dec-20 08:22 38.715592 -74.025115 300 36644ft 404kts
08-Dec-20 08:23 38.776467 -74.147528 300 35238ft 403kts
08-Dec-20 08:24 38.836931 -74.269641 300 33834ft 407kts
08-Dec-20 08:25 38.965027 -74.529642 301 30876ft 413kts
08-Dec-20 08:26 39.105583 -74.728920 340 28343ft 451kts
08-Dec-20 08:27 39.230460 -74.710581 26 26915ft 469kts
08-Dec-20 08:28 39.320012 -74.585100 46 25508ft 480kts
08-Dec-20 08:29 39.413043 -74.465630 37 24094ft 463kts
08-Dec-20 08:30 39.638414 -74.215137 24 20821ft 424kts
08-Dec-20 08:31 39.741282 -74.171103 3 19410ft 360kts
08-Dec-20 08:32 40.061994 -74.170479 339 14757ft 327kts
08-Dec-20 08:33 40.122915 -74.241566 298 7794ft 317kts
08-Dec-20 08:34 40.153133 -74.338255 293 6093ft 288kts
08-Dec-20 08:35 40.179755 -74.424673 294 4418ft 270kts
08-Dec-20 08:36 40.230077 -74.488571 347 2585ft 257kts
08-Dec-20 08:37 40.298413 -74.482959 3 1881ft 234kts
08-Dec-20 08:38 40.363648 -74.473966 3 1883ft 232kts
08-Dec-20 08:39 40.419975 -74.465995 3 1894ft 184kts
08-Dec-20 08:40 40.469405 -74.452317 33 1884ft 188kts
08-Dec-20 08:41 40.488731 -74.391539 69 1891ft 182kts
08-Dec-20 08:42 40.503850 -74.327633 66 1911ft 194kts
08-Dec-20 08:43 40.528134 -74.271568 28 1879ft 157kts
08-Dec-20 08:44 40.570152 -74.241734 20 1270ft 180kts
08-Dec-20 08:45 40.611247 -74.216110 23 867ft 161kts
08-Dec-20 08:46 40.651746 -74.190551 22 404ft 166kts
08-Dec-20 08:47 40.692406 -74.164896 25 17ft 117kts
08-Dec-20 08:48 40.698039 -74.161245 26 17ft 35kts
08-Dec-20 08:49 40.685307 -74.169296 23 18ft 159kts

Navigation Log

Ident Type
Flight plan parsing failed, navigation log unavailable